sensor_id;sensor_type;location;lat;lon;timestamp;temperature;humidity
65203;HTU21D;51788;45.124;38.966;2023-03-14T00:01:49;3.29;84.13
65203;HTU21D;51788;45.124;38.966;2023-03-14T00:04:15;3.30;84.20
65203;HTU21D;51788;45.124;38.966;2023-03-14T00:06:40;3.32;84.13
65203;HTU21D;51788;45.124;38.966;2023-03-14T00:09:07;3.34;84.10
65203;HTU21D;51788;45.124;38.966;2023-03-14T00:11:33;3.39;84.09
65203;HTU21D;51788;45.124;38.966;2023-03-14T00:13:59;3.42;83.95
65203;HTU21D;51788;45.124;38.966;2023-03-14T00:16:26;3.45;83.94
65203;HTU21D;51788;45.124;38.966;2023-03-14T00:18:52;3.44;83.74
65203;HTU21D;51788;45.124;38.966;2023-03-14T00:21:18;3.48;83.69
65203;HTU21D;51788;45.124;38.966;2023-03-14T00:23:44;3.52;83.59
65203;HTU21D;51788;45.124;38.966;2023-03-14T00:26:15;3.54;83.55
65203;HTU21D;51788;45.124;38.966;2023-03-14T00:28:42;3.54;83.42
65203;HTU21D;51788;45.124;38.966;2023-03-14T00:31:11;3.57;83.51
65203;HTU21D;51788;45.124;38.966;2023-03-14T00:33:37;3.56;83.40
65203;HTU21D;51788;45.124;38.966;2023-03-14T00:36:05;3.59;83.44
65203;HTU21D;51788;45.124;38.966;2023-03-14T00:38:33;3.62;83.32
65203;HTU21D;51788;45.124;38.966;2023-03-14T00:40:58;3.62;83.21
65203;HTU21D;51788;45.124;38.966;2023-03-14T00:43:25;3.63;83.25
65203;HTU21D;51788;45.124;38.966;2023-03-14T00:45:52;3.67;83.30
65203;HTU21D;51788;45.124;38.966;2023-03-14T00:48:19;3.64;83.23
65203;HTU21D;51788;45.124;38.966;2023-03-14T00:50:45;3.67;83.23
65203;HTU21D;51788;45.124;38.966;2023-03-14T00:53:14;3.65;83.24
65203;HTU21D;51788;45.124;38.966;2023-03-14T00:55:42;3.64;83.27
65203;HTU21D;51788;45.124;38.966;2023-03-14T00:58:08;3.63;83.27
65203;HTU21D;51788;45.124;38.966;2023-03-14T01:00:35;3.63;83.37
65203;HTU21D;51788;45.124;38.966;2023-03-14T01:03:02;3.62;83.41
65203;HTU21D;51788;45.124;38.966;2023-03-14T01:05:28;3.60;83.43
65203;HTU21D;51788;45.124;38.966;2023-03-14T01:07:54;3.60;83.67
65203;HTU21D;51788;45.124;38.966;2023-03-14T01:10:20;3.60;83.82
65203;HTU21D;51788;45.124;38.966;2023-03-14T01:12:46;3.58;83.72
65203;HTU21D;51788;45.124;38.966;2023-03-14T01:15:12;3.55;83.80
65203;HTU21D;51788;45.124;38.966;2023-03-14T01:17:38;3.56;84.26
65203;HTU21D;51788;45.124;38.966;2023-03-14T01:20:07;3.55;84.13
65203;HTU21D;51788;45.124;38.966;2023-03-14T01:22:37;3.58;84.23
65203;HTU21D;51788;45.124;38.966;2023-03-14T01:25:14;3.56;84.04
65203;HTU21D;51788;45.124;38.966;2023-03-14T01:27:41;3.56;84.19
65203;HTU21D;51788;45.124;38.966;2023-03-14T01:30:09;3.54;84.24
65203;HTU21D;51788;45.124;38.966;2023-03-14T01:32:35;3.53;84.45
65203;HTU21D;51788;45.124;38.966;2023-03-14T01:35:02;3.49;84.48
65203;HTU21D;51788;45.124;38.966;2023-03-14T01:37:28;3.52;84.54
65203;HTU21D;51788;45.124;38.966;2023-03-14T01:39:54;3.52;84.52
65203;HTU21D;51788;45.124;38.966;2023-03-14T01:42:20;3.52;84.51
65203;HTU21D;51788;45.124;38.966;2023-03-14T01:44:58;3.52;84.55
65203;HTU21D;51788;45.124;38.966;2023-03-14T01:47:25;3.50;84.57
65203;HTU21D;51788;45.124;38.966;2023-03-14T01:49:56;3.49;84.68
65203;HTU21D;51788;45.124;38.966;2023-03-14T01:52:28;3.50;84.59
65203;HTU21D;51788;45.124;38.966;2023-03-14T01:55:09;3.54;84.48
65203;HTU21D;51788;45.124;38.966;2023-03-14T01:57:44;3.58;84.35
65203;HTU21D;51788;45.124;38.966;2023-03-14T02:00:15;3.56;84.32
65203;HTU21D;51788;45.124;38.966;2023-03-14T02:02:45;3.58;84.37
65203;HTU21D;51788;45.124;38.966;2023-03-14T02:05:17;3.61;84.58
65203;HTU21D;51788;45.124;38.966;2023-03-14T02:07:50;3.60;84.49
65203;HTU21D;51788;45.124;38.966;2023-03-14T02:10:25;3.63;84.44
65203;HTU21D;51788;45.124;38.966;2023-03-14T02:12:55;3.62;84.35
65203;HTU21D;51788;45.124;38.966;2023-03-14T02:15:39;3.61;84.36
65203;HTU21D;51788;45.124;38.966;2023-03-14T02:18:26;3.61;84.45
65203;HTU21D;51788;45.124;38.966;2023-03-14T02:24:07;3.61;84.32
65203;HTU21D;51788;45.124;38.966;2023-03-14T02:29:28;3.63;84.01
65203;HTU21D;51788;45.124;38.966;2023-03-14T02:31:55;3.68;83.91
65203;HTU21D;51788;45.124;38.966;2023-03-14T02:34:21;3.71;83.62
65203;HTU21D;51788;45.124;38.966;2023-03-14T02:36:48;3.71;83.58
65203;HTU21D;51788;45.124;38.966;2023-03-14T02:39:29;3.72;83.56
65203;HTU21D;51788;45.124;38.966;2023-03-14T02:41:58;3.73;83.37
65203;HTU21D;51788;45.124;38.966;2023-03-14T02:44:24;3.71;83.32
65203;HTU21D;51788;45.124;38.966;2023-03-14T02:46:51;3.71;83.31
65203;HTU21D;51788;45.124;38.966;2023-03-14T02:49:17;3.71;83.26
65203;HTU21D;51788;45.124;38.966;2023-03-14T02:51:44;3.73;83.12
65203;HTU21D;51788;45.124;38.966;2023-03-14T02:54:11;3.73;83.04
65203;HTU21D;51788;45.124;38.966;2023-03-14T02:56:37;3.74;82.93
65203;HTU21D;51788;45.124;38.966;2023-03-14T02:59:04;3.74;82.87
65203;HTU21D;51788;45.124;38.966;2023-03-14T03:01:56;3.71;82.81
65203;HTU21D;51788;45.124;38.966;2023-03-14T03:04:24;3.72;82.81
65203;HTU21D;51788;45.124;38.966;2023-03-14T03:06:50;3.70;82.81
65203;HTU21D;51788;45.124;38.966;2023-03-14T03:09:16;3.68;82.84
65203;HTU21D;51788;45.124;38.966;2023-03-14T03:11:42;3.67;82.83
65203;HTU21D;51788;45.124;38.966;2023-03-14T03:14:12;3.68;82.66
65203;HTU21D;51788;45.124;38.966;2023-03-14T03:16:39;3.63;82.68
65203;HTU21D;51788;45.124;38.966;2023-03-14T03:19:04;3.64;82.64
65203;HTU21D;51788;45.124;38.966;2023-03-14T03:21:30;3.64;82.51
65203;HTU21D;51788;45.124;38.966;2023-03-14T03:23:56;3.61;82.47
65203;HTU21D;51788;45.124;38.966;2023-03-14T03:26:22;3.62;82.31
65203;HTU21D;51788;45.124;38.966;2023-03-14T03:28:51;3.63;82.26
65203;HTU21D;51788;45.124;38.966;2023-03-14T03:31:17;3.60;82.28
65203;HTU21D;51788;45.124;38.966;2023-03-14T03:33:43;3.65;82.13
65203;HTU21D;51788;45.124;38.966;2023-03-14T03:36:10;3.67;81.99
65203;HTU21D;51788;45.124;38.966;2023-03-14T03:38:38;3.65;81.94
65203;HTU21D;51788;45.124;38.966;2023-03-14T03:41:06;3.72;81.59
65203;HTU21D;51788;45.124;38.966;2023-03-14T03:43:32;3.75;81.48
65203;HTU21D;51788;45.124;38.966;2023-03-14T03:46:03;3.75;81.47
65203;HTU21D;51788;45.124;38.966;2023-03-14T03:48:30;3.75;81.45
65203;HTU21D;51788;45.124;38.966;2023-03-14T03:50:56;3.76;81.36
65203;HTU21D;51788;45.124;38.966;2023-03-14T03:53:22;3.78;81.16
65203;HTU21D;51788;45.124;38.966;2023-03-14T03:55:48;3.79;81.07
65203;HTU21D;51788;45.124;38.966;2023-03-14T03:58:14;3.79;81.07
65203;HTU21D;51788;45.124;38.966;2023-03-14T04:00:40;3.84;80.94
65203;HTU21D;51788;45.124;38.966;2023-03-14T04:03:06;3.89;80.80
65203;HTU21D;51788;45.124;38.966;2023-03-14T04:05:33;3.90;80.83
65203;HTU21D;51788;45.124;38.966;2023-03-14T04:08:07;3.97;80.65
65203;HTU21D;51788;45.124;38.966;2023-03-14T04:10:36;4.03;80.29
65203;HTU21D;51788;45.124;38.966;2023-03-14T04:13:09;4.05;80.30
65203;HTU21D;51788;45.124;38.966;2023-03-14T04:15:37;4.10;79.95
65203;HTU21D;51788;45.124;38.966;2023-03-14T04:18:09;4.12;80.02
65203;HTU21D;51788;45.124;38.966;2023-03-14T04:20:35;4.18;79.68
65203;HTU21D;51788;45.124;38.966;2023-03-14T04:23:02;4.20;79.73
65203;HTU21D;51788;45.124;38.966;2023-03-14T04:25:28;4.28;79.48
65203;HTU21D;51788;45.124;38.966;2023-03-14T04:27:57;4.29;79.48
65203;HTU21D;51788;45.124;38.966;2023-03-14T04:30:27;4.33;79.32
65203;HTU21D;51788;45.124;38.966;2023-03-14T04:32:57;4.36;79.23
65203;HTU21D;51788;45.124;38.966;2023-03-14T04:35:25;4.38;79.22
65203;HTU21D;51788;45.124;38.966;2023-03-14T04:37:55;4.41;79.12
65203;HTU21D;51788;45.124;38.966;2023-03-14T04:40:22;4.44;78.98
65203;HTU21D;51788;45.124;38.966;2023-03-14T04:42:51;4.46;79.00
65203;HTU21D;51788;45.124;38.966;2023-03-14T04:45:18;4.47;78.90
65203;HTU21D;51788;45.124;38.966;2023-03-14T04:47:44;4.47;78.78
65203;HTU21D;51788;45.124;38.966;2023-03-14T04:50:14;4.50;78.74
65203;HTU21D;51788;45.124;38.966;2023-03-14T04:52:40;4.51;78.63
65203;HTU21D;51788;45.124;38.966;2023-03-14T04:55:07;4.56;78.43
65203;HTU21D;51788;45.124;38.966;2023-03-14T04:57:33;4.57;78.45
65203;HTU21D;51788;45.124;38.966;2023-03-14T04:59:59;4.54;78.61
65203;HTU21D;51788;45.124;38.966;2023-03-14T05:02:52;4.58;78.24
65203;HTU21D;51788;45.124;38.966;2023-03-14T05:05:29;4.59;77.92
65203;HTU21D;51788;45.124;38.966;2023-03-14T05:08:18;4.59;77.82
65203;HTU21D;51788;45.124;38.966;2023-03-14T05:10:55;4.60;77.86
65203;HTU21D;51788;45.124;38.966;2023-03-14T05:13:34;4.64;77.89
65203;HTU21D;51788;45.124;38.966;2023-03-14T05:16:20;4.68;77.74
65203;HTU21D;51788;45.124;38.966;2023-03-14T05:18:54;4.73;77.72
65203;HTU21D;51788;45.124;38.966;2023-03-14T05:21:43;4.75;77.40
65203;HTU21D;51788;45.124;38.966;2023-03-14T05:24:28;4.77;77.46
65203;HTU21D;51788;45.124;38.966;2023-03-14T05:26:56;4.80;77.02
65203;HTU21D;51788;45.124;38.966;2023-03-14T05:29:47;4.84;76.99
65203;HTU21D;51788;45.124;38.966;2023-03-14T05:32:19;4.90;76.99
65203;HTU21D;51788;45.124;38.966;2023-03-14T05:34:54;4.92;76.86
65203;HTU21D;51788;45.124;38.966;2023-03-14T05:37:35;5.00;76.47
65203;HTU21D;51788;45.124;38.966;2023-03-14T05:40:34;5.05;76.37
65203;HTU21D;51788;45.124;38.966;2023-03-14T05:43:13;5.09;76.34
65203;HTU21D;51788;45.124;38.966;2023-03-14T05:46:06;5.15;75.82
65203;HTU21D;51788;45.124;38.966;2023-03-14T05:48:41;5.21;75.74
65203;HTU21D;51788;45.124;38.966;2023-03-14T05:51:26;5.26;75.57
65203;HTU21D;51788;45.124;38.966;2023-03-14T05:53:55;5.32;75.49
65203;HTU21D;51788;45.124;38.966;2023-03-14T05:56:32;5.36;75.19
65203;HTU21D;51788;45.124;38.966;2023-03-14T05:59:34;5.40;74.22
65203;HTU21D;51788;45.124;38.966;2023-03-14T06:02:14;5.40;74.56
65203;HTU21D;51788;45.124;38.966;2023-03-14T06:04:50;5.45;74.25
65203;HTU21D;51788;45.124;38.966;2023-03-14T06:07:16;5.50;74.02
65203;HTU21D;51788;45.124;38.966;2023-03-14T06:09:42;5.52;73.73
65203;HTU21D;51788;45.124;38.966;2023-03-14T06:12:08;5.59;74.06
65203;HTU21D;51788;45.124;38.966;2023-03-14T06:14:40;5.67;73.83
65203;HTU21D;51788;45.124;38.966;2023-03-14T06:17:06;5.71;73.62
65203;HTU21D;51788;45.124;38.966;2023-03-14T06:19:39;5.77;73.24
65203;HTU21D;51788;45.124;38.966;2023-03-14T06:22:05;5.76;73.28
65203;HTU21D;51788;45.124;38.966;2023-03-14T06:24:36;5.79;73.36
65203;HTU21D;51788;45.124;38.966;2023-03-14T06:27:03;5.81;73.63
65203;HTU21D;51788;45.124;38.966;2023-03-14T06:29:30;5.82;73.40
65203;HTU21D;51788;45.124;38.966;2023-03-14T06:31:57;5.80;72.84
65203;HTU21D;51788;45.124;38.966;2023-03-14T06:34:23;5.75;73.38
65203;HTU21D;51788;45.124;38.966;2023-03-14T06:36:49;5.78;72.84
65203;HTU21D;51788;45.124;38.966;2023-03-14T06:39:15;5.78;72.83
65203;HTU21D;51788;45.124;38.966;2023-03-14T06:41:45;5.76;73.34
65203;HTU21D;51788;45.124;38.966;2023-03-14T06:44:11;5.74;73.61
65203;HTU21D;51788;45.124;38.966;2023-03-14T06:46:37;5.72;73.68
65203;HTU21D;51788;45.124;38.966;2023-03-14T06:49:03;5.76;73.45
65203;HTU21D;51788;45.124;38.966;2023-03-14T06:51:31;5.76;73.48
65203;HTU21D;51788;45.124;38.966;2023-03-14T06:53:58;5.76;73.80
65203;HTU21D;51788;45.124;38.966;2023-03-14T06:56:26;5.83;73.71
65203;HTU21D;51788;45.124;38.966;2023-03-14T06:58:54;5.85;73.80
65203;HTU21D;51788;45.124;38.966;2023-03-14T07:01:27;5.94;73.61
65203;HTU21D;51788;45.124;38.966;2023-03-14T07:04:01;6.01;73.41
65203;HTU21D;51788;45.124;38.966;2023-03-14T07:06:27;6.04;73.61
65203;HTU21D;51788;45.124;38.966;2023-03-14T07:08:55;6.11;73.37
65203;HTU21D;51788;45.124;38.966;2023-03-14T07:11:22;6.20;73.11
65203;HTU21D;51788;45.124;38.966;2023-03-14T07:13:48;6.23;73.13
65203;HTU21D;51788;45.124;38.966;2023-03-14T07:16:14;6.29;72.77
65203;HTU21D;51788;45.124;38.966;2023-03-14T07:18:40;6.30;72.29
65203;HTU21D;51788;45.124;38.966;2023-03-14T07:21:07;6.29;72.58
65203;HTU21D;51788;45.124;38.966;2023-03-14T07:23:33;6.31;72.80
65203;HTU21D;51788;45.124;38.966;2023-03-14T07:25:59;6.36;72.80
65203;HTU21D;51788;45.124;38.966;2023-03-14T07:28:26;6.41;72.88
65203;HTU21D;51788;45.124;38.966;2023-03-14T07:30:59;6.46;72.79
65203;HTU21D;51788;45.124;38.966;2023-03-14T07:33:30;6.54;72.83
65203;HTU21D;51788;45.124;38.966;2023-03-14T07:35:56;6.61;72.54
65203;HTU21D;51788;45.124;38.966;2023-03-14T07:38:22;6.64;72.58
65203;HTU21D;51788;45.124;38.966;2023-03-14T07:41:07;6.69;72.53
65203;HTU21D;51788;45.124;38.966;2023-03-14T07:43:36;6.72;72.70
65203;HTU21D;51788;45.124;38.966;2023-03-14T07:46:02;6.82;72.58
65203;HTU21D;51788;45.124;38.966;2023-03-14T07:48:28;6.86;72.45
65203;HTU21D;51788;45.124;38.966;2023-03-14T07:50:55;6.91;72.64
65203;HTU21D;51788;45.124;38.966;2023-03-14T07:53:21;6.99;72.44
65203;HTU21D;51788;45.124;38.966;2023-03-14T07:55:47;7.04;72.59
65203;HTU21D;51788;45.124;38.966;2023-03-14T07:58:14;7.15;72.11
65203;HTU21D;51788;45.124;38.966;2023-03-14T08:00:40;7.23;72.14
65203;HTU21D;51788;45.124;38.966;2023-03-14T08:03:05;7.32;71.95
65203;HTU21D;51788;45.124;38.966;2023-03-14T08:05:35;7.37;71.37
65203;HTU21D;51788;45.124;38.966;2023-03-14T08:08:01;7.39;71.31
65203;HTU21D;51788;45.124;38.966;2023-03-14T08:10:27;7.46;70.42
65203;HTU21D;51788;45.124;38.966;2023-03-14T08:12:55;7.50;70.40
65203;HTU21D;51788;45.124;38.966;2023-03-14T08:15:23;7.57;69.93
65203;HTU21D;51788;45.124;38.966;2023-03-14T08:17:49;7.60;69.72
65203;HTU21D;51788;45.124;38.966;2023-03-14T08:20:17;7.68;69.01
65203;HTU21D;51788;45.124;38.966;2023-03-14T08:22:43;7.67;69.33
65203;HTU21D;51788;45.124;38.966;2023-03-14T08:25:10;7.73;69.00
65203;HTU21D;51788;45.124;38.966;2023-03-14T08:27:36;7.76;68.91
65203;HTU21D;51788;45.124;38.966;2023-03-14T08:30:06;7.76;69.06
65203;HTU21D;51788;45.124;38.966;2023-03-14T08:32:32;7.86;68.64
65203;HTU21D;51788;45.124;38.966;2023-03-14T08:34:58;7.88;68.41
65203;HTU21D;51788;45.124;38.966;2023-03-14T08:37:24;7.90;68.68
65203;HTU21D;51788;45.124;38.966;2023-03-14T08:39:51;8.00;69.04
65203;HTU21D;51788;45.124;38.966;2023-03-14T08:42:17;8.11;68.43
65203;HTU21D;51788;45.124;38.966;2023-03-14T08:44:43;8.19;68.49
65203;HTU21D;51788;45.124;38.966;2023-03-14T08:47:09;8.34;67.78
65203;HTU21D;51788;45.124;38.966;2023-03-14T08:49:35;8.43;67.34
65203;HTU21D;51788;45.124;38.966;2023-03-14T08:52:03;8.53;66.96
65203;HTU21D;51788;45.124;38.966;2023-03-14T08:54:29;8.53;66.46
65203;HTU21D;51788;45.124;38.966;2023-03-14T08:56:55;8.55;66.29
65203;HTU21D;51788;45.124;38.966;2023-03-14T08:59:22;8.53;66.67
65203;HTU21D;51788;45.124;38.966;2023-03-14T09:01:48;8.60;66.11
65203;HTU21D;51788;45.124;38.966;2023-03-14T09:04:14;8.57;66.17
65203;HTU21D;51788;45.124;38.966;2023-03-14T09:06:40;8.51;65.97
65203;HTU21D;51788;45.124;38.966;2023-03-14T09:09:06;8.41;66.14
65203;HTU21D;51788;45.124;38.966;2023-03-14T09:11:32;8.36;66.73
65203;HTU21D;51788;45.124;38.966;2023-03-14T09:13:58;8.32;66.59
65203;HTU21D;51788;45.124;38.966;2023-03-14T09:16:25;8.23;67.10
65203;HTU21D;51788;45.124;38.966;2023-03-14T09:18:51;8.16;67.75
65203;HTU21D;51788;45.124;38.966;2023-03-14T09:21:21;8.09;68.39
65203;HTU21D;51788;45.124;38.966;2023-03-14T09:23:47;8.07;68.78
65203;HTU21D;51788;45.124;38.966;2023-03-14T09:26:13;8.01;69.35
65203;HTU21D;51788;45.124;38.966;2023-03-14T09:28:39;7.97;69.87
65203;HTU21D;51788;45.124;38.966;2023-03-14T09:31:06;7.90;70.32
65203;HTU21D;51788;45.124;38.966;2023-03-14T09:33:33;7.79;71.10
65203;HTU21D;51788;45.124;38.966;2023-03-14T09:35:59;7.72;71.48
65203;HTU21D;51788;45.124;38.966;2023-03-14T09:38:26;7.72;71.96
65203;HTU21D;51788;45.124;38.966;2023-03-14T09:40:53;7.68;72.19
65203;HTU21D;51788;45.124;38.966;2023-03-14T09:43:21;7.68;72.42
65203;HTU21D;51788;45.124;38.966;2023-03-14T09:45:48;7.67;72.58
65203;HTU21D;51788;45.124;38.966;2023-03-14T09:48:19;7.65;72.70
65203;HTU21D;51788;45.124;38.966;2023-03-14T09:50:49;7.67;72.87
65203;HTU21D;51788;45.124;38.966;2023-03-14T09:53:18;7.74;72.91
65203;HTU21D;51788;45.124;38.966;2023-03-14T09:55:47;7.76;72.77
65203;HTU21D;51788;45.124;38.966;2023-03-14T09:58:20;7.76;72.84
65203;HTU21D;51788;45.124;38.966;2023-03-14T10:00:46;7.82;72.83
65203;HTU21D;51788;45.124;38.966;2023-03-14T10:05:40;7.90;72.78
65203;HTU21D;51788;45.124;38.966;2023-03-14T10:08:10;8.00;72.61
65203;HTU21D;51788;45.124;38.966;2023-03-14T10:10:36;8.09;72.09
65203;HTU21D;51788;45.124;38.966;2023-03-14T10:15:48;8.24;70.09
65203;HTU21D;51788;45.124;38.966;2023-03-14T10:18:14;8.26;69.19
65203;HTU21D;51788;45.124;38.966;2023-03-14T10:20:42;8.31;69.00
65203;HTU21D;51788;45.124;38.966;2023-03-14T10:25:42;8.45;68.24
65203;HTU21D;51788;45.124;38.966;2023-03-14T10:28:26;8.50;68.04
65203;HTU21D;51788;45.124;38.966;2023-03-14T10:30:53;8.59;67.97
65203;HTU21D;51788;45.124;38.966;2023-03-14T10:38:32;8.95;67.59
65203;HTU21D;51788;45.124;38.966;2023-03-14T10:40:58;8.94;66.75
65203;HTU21D;51788;45.124;38.966;2023-03-14T10:43:32;8.86;66.64
65203;HTU21D;51788;45.124;38.966;2023-03-14T10:46:05;8.75;66.91
65203;HTU21D;51788;45.124;38.966;2023-03-14T10:48:35;8.72;66.32
65203;HTU21D;51788;45.124;38.966;2023-03-14T10:51:07;8.63;67.23
65203;HTU21D;51788;45.124;38.966;2023-03-14T10:56:34;8.64;66.31
65203;HTU21D;51788;45.124;38.966;2023-03-14T10:59:01;8.60;66.81
65203;HTU21D;51788;45.124;38.966;2023-03-14T11:01:41;8.59;66.36
65203;HTU21D;51788;45.124;38.966;2023-03-14T11:09:53;8.64;67.10
65203;HTU21D;51788;45.124;38.966;2023-03-14T11:12:36;8.72;67.32
65203;HTU21D;51788;45.124;38.966;2023-03-14T11:15:13;8.82;66.85
65203;HTU21D;51788;45.124;38.966;2023-03-14T11:20:59;8.91;66.88
65203;HTU21D;51788;45.124;38.966;2023-03-14T11:26:24;8.94;66.63
65203;HTU21D;51788;45.124;38.966;2023-03-14T11:28:57;8.92;66.09
65203;HTU21D;51788;45.124;38.966;2023-03-14T11:31:27;8.92;65.93
65203;HTU21D;51788;45.124;38.966;2023-03-14T11:34:17;8.89;66.25
65203;HTU21D;51788;45.124;38.966;2023-03-14T11:37:04;8.93;66.50
65203;HTU21D;51788;45.124;38.966;2023-03-14T11:39:45;8.98;66.22
65203;HTU21D;51788;45.124;38.966;2023-03-14T11:42:17;9.04;66.62
65203;HTU21D;51788;45.124;38.966;2023-03-14T11:44:46;9.19;66.59
65203;HTU21D;51788;45.124;38.966;2023-03-14T11:47:37;9.38;66.04
65203;HTU21D;51788;45.124;38.966;2023-03-14T11:50:24;9.51;65.82
65203;HTU21D;51788;45.124;38.966;2023-03-14T11:52:57;9.54;65.29
65203;HTU21D;51788;45.124;38.966;2023-03-14T11:55:37;9.50;65.41
65203;HTU21D;51788;45.124;38.966;2023-03-14T11:58:19;9.55;65.83
65203;HTU21D;51788;45.124;38.966;2023-03-14T12:00:48;9.69;65.85
65203;HTU21D;51788;45.124;38.966;2023-03-14T12:05:55;9.82;65.06
65203;HTU21D;51788;45.124;38.966;2023-03-14T12:08:30;9.80;64.78
65203;HTU21D;51788;45.124;38.966;2023-03-14T12:13:33;9.70;65.02
65203;HTU21D;51788;45.124;38.966;2023-03-14T12:16:05;9.71;65.19
65203;HTU21D;51788;45.124;38.966;2023-03-14T12:18:34;9.69;65.08
65203;HTU21D;51788;45.124;38.966;2023-03-14T12:21:06;9.72;65.31
65203;HTU21D;51788;45.124;38.966;2023-03-14T12:23:50;9.67;65.24
65203;HTU21D;51788;45.124;38.966;2023-03-14T12:28:49;9.59;65.34
65203;HTU21D;51788;45.124;38.966;2023-03-14T12:39:45;9.49;65.98
65203;HTU21D;51788;45.124;38.966;2023-03-14T12:43:10;9.57;65.97
65203;HTU21D;51788;45.124;38.966;2023-03-14T12:45:30;9.64;66.04
65203;HTU21D;51788;45.124;38.966;2023-03-14T12:48:06;9.67;65.84
65203;HTU21D;51788;45.124;38.966;2023-03-14T12:50:37;9.68;66.02
65203;HTU21D;51788;45.124;38.966;2023-03-14T12:56:25;9.77;66.32
65203;HTU21D;51788;45.124;38.966;2023-03-14T13:01:33;9.86;66.30
65203;HTU21D;51788;45.124;38.966;2023-03-14T13:04:18;9.92;66.29
65203;HTU21D;51788;45.124;38.966;2023-03-14T13:06:58;9.99;66.30
65203;HTU21D;51788;45.124;38.966;2023-03-14T13:12:11;10.09;66.45
65203;HTU21D;51788;45.124;38.966;2023-03-14T13:14:43;10.15;66.46
65203;HTU21D;51788;45.124;38.966;2023-03-14T13:17:12;10.22;66.27
65203;HTU21D;51788;45.124;38.966;2023-03-14T13:19:38;10.25;66.40
65203;HTU21D;51788;45.124;38.966;2023-03-14T13:22:15;10.29;66.19
65203;HTU21D;51788;45.124;38.966;2023-03-14T13:24:43;10.30;66.15
65203;HTU21D;51788;45.124;38.966;2023-03-14T13:27:19;10.25;66.51
65203;HTU21D;51788;45.124;38.966;2023-03-14T13:29:49;10.23;66.14
65203;HTU21D;51788;45.124;38.966;2023-03-14T13:32:26;10.18;66.41
65203;HTU21D;51788;45.124;38.966;2023-03-14T13:34:56;10.15;66.48
65203;HTU21D;51788;45.124;38.966;2023-03-14T13:37:24;10.15;66.54
65203;HTU21D;51788;45.124;38.966;2023-03-14T13:39:52;10.19;66.53
65203;HTU21D;51788;45.124;38.966;2023-03-14T13:42:19;10.27;66.35
65203;HTU21D;51788;45.124;38.966;2023-03-14T13:44:46;10.37;66.09
65203;HTU21D;51788;45.124;38.966;2023-03-14T13:47:17;10.40;66.05
65203;HTU21D;51788;45.124;38.966;2023-03-14T13:49:44;10.40;65.93
65203;HTU21D;51788;45.124;38.966;2023-03-14T13:52:30;10.36;65.75
65203;HTU21D;51788;45.124;38.966;2023-03-14T13:54:57;10.34;65.74
65203;HTU21D;51788;45.124;38.966;2023-03-14T13:57:25;10.27;65.80
65203;HTU21D;51788;45.124;38.966;2023-03-14T14:00:05;10.25;66.11
65203;HTU21D;51788;45.124;38.966;2023-03-14T14:02:34;10.24;66.15
65203;HTU21D;51788;45.124;38.966;2023-03-14T14:05:02;10.19;66.36
65203;HTU21D;51788;45.124;38.966;2023-03-14T14:07:28;10.16;66.56
65203;HTU21D;51788;45.124;38.966;2023-03-14T14:09:54;10.15;66.49
65203;HTU21D;51788;45.124;38.966;2023-03-14T14:12:30;10.16;66.56
65203;HTU21D;51788;45.124;38.966;2023-03-14T14:15:02;10.12;66.75
65203;HTU21D;51788;45.124;38.966;2023-03-14T14:17:38;10.13;66.87
65203;HTU21D;51788;45.124;38.966;2023-03-14T14:20:10;10.15;66.82
65203;HTU21D;51788;45.124;38.966;2023-03-14T14:22:38;10.13;66.91
65203;HTU21D;51788;45.124;38.966;2023-03-14T14:25:04;10.11;67.13
65203;HTU21D;51788;45.124;38.966;2023-03-14T14:27:36;10.12;67.28
65203;HTU21D;51788;45.124;38.966;2023-03-14T14:30:24;10.10;67.43
65203;HTU21D;51788;45.124;38.966;2023-03-14T14:32:51;10.09;67.61
65203;HTU21D;51788;45.124;38.966;2023-03-14T14:35:26;10.08;67.79
65203;HTU21D;51788;45.124;38.966;2023-03-14T14:37:56;10.06;67.88
65203;HTU21D;51788;45.124;38.966;2023-03-14T14:40:25;10.06;68.04
65203;HTU21D;51788;45.124;38.966;2023-03-14T14:42:51;10.06;68.16
65203;HTU21D;51788;45.124;38.966;2023-03-14T14:45:24;10.06;68.23
65203;HTU21D;51788;45.124;38.966;2023-03-14T14:47:55;10.07;68.38
65203;HTU21D;51788;45.124;38.966;2023-03-14T14:50:39;10.08;68.57
65203;HTU21D;51788;45.124;38.966;2023-03-14T14:55:44;10.10;68.62
65203;HTU21D;51788;45.124;38.966;2023-03-14T15:01:15;10.12;68.87
65203;HTU21D;51788;45.124;38.966;2023-03-14T15:03:43;10.16;68.62
65203;HTU21D;51788;45.124;38.966;2023-03-14T15:06:12;10.15;68.62
65203;HTU21D;51788;45.124;38.966;2023-03-14T15:08:39;10.15;68.60
65203;HTU21D;51788;45.124;38.966;2023-03-14T15:11:05;10.16;68.49
65203;HTU21D;51788;45.124;38.966;2023-03-14T15:13:31;10.18;68.45
65203;HTU21D;51788;45.124;38.966;2023-03-14T15:15:57;10.16;68.47
65203;HTU21D;51788;45.124;38.966;2023-03-14T15:18:24;10.18;68.46
65203;HTU21D;51788;45.124;38.966;2023-03-14T15:20:51;10.18;68.46
65203;HTU21D;51788;45.124;38.966;2023-03-14T15:23:19;10.16;68.50
65203;HTU21D;51788;45.124;38.966;2023-03-14T15:25:45;10.14;68.51
65203;HTU21D;51788;45.124;38.966;2023-03-14T15:28:20;10.14;68.58
65203;HTU21D;51788;45.124;38.966;2023-03-14T15:30:52;10.14;68.54
65203;HTU21D;51788;45.124;38.966;2023-03-14T15:33:20;10.15;68.52
65203;HTU21D;51788;45.124;38.966;2023-03-14T15:35:47;10.18;68.33
65203;HTU21D;51788;45.124;38.966;2023-03-14T15:38:18;10.15;68.43
65203;HTU21D;51788;45.124;38.966;2023-03-14T15:40:52;10.16;68.27
65203;HTU21D;51788;45.124;38.966;2023-03-14T15:43:18;10.16;68.17
65203;HTU21D;51788;45.124;38.966;2023-03-14T15:45:45;10.14;68.36
65203;HTU21D;51788;45.124;38.966;2023-03-14T15:48:16;10.12;68.32
65203;HTU21D;51788;45.124;38.966;2023-03-14T15:50:43;10.12;68.42
65203;HTU21D;51788;45.124;38.966;2023-03-14T15:53:10;10.14;68.30
65203;HTU21D;51788;45.124;38.966;2023-03-14T15:55:36;10.14;68.30
65203;HTU21D;51788;45.124;38.966;2023-03-14T15:58:02;10.13;68.46
65203;HTU21D;51788;45.124;38.966;2023-03-14T16:00:28;10.13;68.40
65203;HTU21D;51788;45.124;38.966;2023-03-14T16:02:55;10.16;68.28
65203;HTU21D;51788;45.124;38.966;2023-03-14T16:05:22;10.14;68.31
65203;HTU21D;51788;45.124;38.966;2023-03-14T16:07:48;10.13;68.41
65203;HTU21D;51788;45.124;38.966;2023-03-14T16:10:15;10.16;68.26
65203;HTU21D;51788;45.124;38.966;2023-03-14T16:12:41;10.15;68.38
65203;HTU21D;51788;45.124;38.966;2023-03-14T16:15:08;10.15;68.40
65203;HTU21D;51788;45.124;38.966;2023-03-14T16:17:35;10.12;68.52
65203;HTU21D;51788;45.124;38.966;2023-03-14T16:20:04;10.12;68.52
65203;HTU21D;51788;45.124;38.966;2023-03-14T16:22:30;10.11;68.61
65203;HTU21D;51788;45.124;38.966;2023-03-14T16:25:04;10.06;68.78
65203;HTU21D;51788;45.124;38.966;2023-03-14T16:27:31;10.05;68.91
65203;HTU21D;51788;45.124;38.966;2023-03-14T16:29:58;10.04;69.00
65203;HTU21D;51788;45.124;38.966;2023-03-14T16:32:27;10.00;69.14
65203;HTU21D;51788;45.124;38.966;2023-03-14T16:34:53;9.99;69.20